Time;durP1;ratioP1;P1;durP2;ratioP2;P2;SDS_P1;SDS_P2;PMS_P1;PMS_P2;Temp;Humidity;BMP_temperature;BMP_pressure;BME280_temperature;BME280_humidity;BME280_pressure;Samples;Min_cycle;Max_cycle;Signal;HPM_P1;HPM_P2
2023/12/24 00:01:48;;;;;;;;;47.25;37.75;;;;;11.09;56.54;100611.03;146609;582;46020;-68
2023/12/24 00:04:51;;;;;;;;;38.75;31.75;;;;;11.09;56.94;100601.56;146609;610;46913;-68
2023/12/24 00:08:00;;;;;;;;;33.00;31.25;;;;;11.06;56.70;100609.19;146610;571;47010;-66
2023/12/24 00:11:03;;;;;;;;;33.00;29.00;;;;;11.04;56.31;100596.97;146607;575;47012;-67
2023/12/24 00:14:02;;;;;;;;;40.75;33.00;;;;;11.00;56.84;100588.16;146613;593;46010;-67
2023/12/24 00:17:14;;;;;;;;;37.50;32.50;;;;;6.68;56.20;99859.00;146602;569;47014;-71
2023/12/24 00:20:30;;;;;;;;;28.50;25.50;;;;;10.89;56.70;100606.59;146605;649;47010;-70
2023/12/24 00:23:25;;;;;;;;;22.75;19.75;;;;;10.78;57.40;100611.28;146605;598;46016;-70
2023/12/24 00:26:21;;;;;;;;;26.75;23.00;;;;;10.70;57.86;100615.19;146609;601;46020;-70
2023/12/24 00:29:26;;;;;;;;;28.25;24.75;;;;;6.19;57.33;99858.94;146604;688;46017;-70
2023/12/24 00:32:37;;;;;;;;;45.00;35.25;;;;;10.59;57.88;100628.53;146611;577;46020;-68
2023/12/24 00:35:52;;;;;;;;;39.50;32.25;;;;;10.49;57.45;100646.13;146604;579;46017;-67
2023/12/24 00:38:52;;;;;;;;;48.25;37.75;;;;;10.53;58.62;100620.44;146610;563;47012;-66
2023/12/24 00:42:00;;;;;;;;;41.25;33.50;;;;;10.59;58.19;100625.94;146605;644;47913;-67
2023/12/24 00:44:58;;;;;;;;;39.75;31.00;;;;;10.64;58.45;100637.41;146612;586;46021;-67
2023/12/24 00:48:03;;;;;;;;;38.00;31.25;;;;;7.43;57.60;100083.78;146607;570;46012;-67
2023/12/24 00:51:01;;;;;;;;;29.75;24.75;;;;;10.50;58.47;100633.25;146603;624;46021;-66
2023/12/24 00:54:00;;;;;;;;;31.00;26.25;;;;;10.38;58.84;100641.31;146600;618;47012;-66
2023/12/24 00:57:06;;;;;;;;;28.00;24.50;;;;;10.33;59.04;100657.44;146613;663;46020;-66
2023/12/24 00:59:58;;;;;;;;;29.00;25.25;;;;;10.24;59.44;100651.75;146606;637;47016;-66
2023/12/24 01:02:56;;;;;;;;;23.00;20.50;;;;;10.09;59.74;100650.16;146612;566;46020;-66
2023/12/24 01:06:03;;;;;;;;;26.00;23.25;;;;;8.00;60.06;100309.66;146605;597;46016;-65
2023/12/24 01:09:01;;;;;;;;;23.75;17.75;;;;;9.70;60.88;100639.47;146613;569;46010;-67
2023/12/24 01:12:04;;;;;;;;;24.00;21.75;;;;;9.65;61.14;100665.91;146608;639;46017;-66
2023/12/24 01:15:26;;;;;;;;;24.25;21.00;;;;;9.60;61.68;100664.81;146612;613;46010;-65
2023/12/24 01:18:29;;;;;;;;;49.75;39.75;;;;;9.62;61.48;100661.47;146606;578;46016;-65
2023/12/24 01:21:48;;;;;;;;;42.25;33.75;;;;;9.71;60.98;100659.38;146608;590;46010;-65
2023/12/24 01:24:55;;;;;;;;;43.00;34.25;;;;;5.76;60.51;99950.81;146604;564;46016;-65
2023/12/24 01:27:53;;;;;;;;;33.25;31.50;;;;;9.82;61.57;100656.47;146607;586;46030;-65
2023/12/24 01:31:04;;;;;;;;;38.00;34.00;;;;;9.70;61.65;100670.53;146607;592;46016;-65
2023/12/24 01:33:57;;;;;;;;;37.50;30.75;;;;;9.57;62.38;100670.69;146610;765;46020;-65
2023/12/24 01:36:59;;;;;;;;;34.75;27.75;;;;;9.44;62.25;100676.91;146606;573;47014;-65
2023/12/24 01:40:02;;;;;;;;;24.75;24.00;;;;;9.36;63.21;100675.59;146613;582;46020;-65
2023/12/24 01:43:10;;;;;;;;;21.75;20.25;;;;;9.35;62.45;100670.34;146601;617;47016;-65
2023/12/24 01:46:11;;;;;;;;;27.00;22.50;;;;;9.32;62.32;100670.16;146612;583;46020;-65
2023/12/24 01:49:16;;;;;;;;;26.25;24.50;;;;;9.28;62.60;100673.38;146606;564;46016;-65
2023/12/24 01:52:17;;;;;;;;;25.00;22.50;;;;;9.24;62.73;100667.13;146601;572;46014;-64
2023/12/24 01:55:30;;;;;;;;;30.00;25.75;;;;;9.27;61.96;100677.66;146605;584;46016;-65
2023/12/24 01:58:34;;;;;;;;;25.00;22.50;;;;;9.30;63.15;100675.25;146612;586;46021;-64
2023/12/24 02:01:39;;;;;;;;;21.25;18.00;;;;;9.36;62.40;100673.00;146601;590;47012;-70
2023/12/24 02:04:49;;;;;;;;;;;;;;;;;;;;;
2023/12/24 02:07:55;;;;;;;;;23.50;18.75;;;;;9.59;62.23;100679.41;146602;615;46016;-69
2023/12/24 02:11:07;;;;;;;;;29.25;25.50;;;;;9.65;60.72;100671.97;146609;619;46020;-69
2023/12/24 02:14:07;;;;;;;;;35.75;31.75;;;;;9.64;61.67;100677.09;146602;601;46913;-69
2023/12/24 02:17:12;;;;;;;;;26.00;23.75;;;;;9.60;61.59;100678.63;146609;564;47020;-67
2023/12/24 02:20:09;;;;;;;;;27.50;23.75;;;;;9.50;61.92;100658.22;146606;577;47014;-68
2023/12/24 02:23:05;;;;;;;;;13.50;13.50;;;;;9.49;62.02;100665.09;146605;579;46020;-69
2023/12/24 02:26:10;;;;;;;;;17.50;14.50;;;;;7.49;62.36;100334.34;146608;575;46012;-69
2023/12/24 02:29:35;;;;;;;;;12.75;10.00;;;;;9.34;61.44;100669.41;146613;632;47020;-68
2023/12/24 02:32:43;;;;;;;;;12.50;11.50;;;;;9.25;62.39;100666.31;146610;571;46034;-70
2023/12/24 02:35:40;;;;;;;;;13.25;11.25;;;;;9.19;62.62;100672.06;146613;620;47021;-70
2023/12/24 02:38:39;;;;;;;;;9.50;9.00;;;;;9.13;62.84;100666.56;146608;593;46016;-65
2023/12/24 02:41:35;;;;;;;;;13.25;11.50;;;;;9.09;63.64;100659.41;146615;574;47010;-67
2023/12/24 02:44:52;;;;;;;;;13.25;11.50;;;;;4.66;62.31;99900.56;146608;602;46012;-65
2023/12/24 02:48:01;;;;;;;;;;;;;;;;;;;;;
2023/12/24 02:51:11;;;;;;;;;9.75;8.00;;;;;8.93;64.31;100643.84;146605;570;46017;-66
2023/12/24 02:54:14;;;;;;;;;12.00;10.00;;;;;8.95;64.26;100660.34;146611;582;46020;-64
2023/12/24 02:57:09;;;;;;;;;8.25;8.00;;;;;8.96;64.61;100655.25;146609;590;46013;-66
2023/12/24 03:00:13;;;;;;;;;10.25;9.00;;;;;8.95;64.13;100652.59;146616;579;46020;-70
2023/12/24 03:03:22;;;;;;;;;11.25;10.00;;;;;8.90;63.74;100675.59;146612;580;46016;-69
2023/12/24 03:06:15;;;;;;;;;17.50;14.00;;;;;8.83;64.57;100667.41;146614;570;46031;-68
2023/12/24 03:09:16;;;;;;;;;13.25;10.00;;;;;8.80;64.89;100662.94;146608;575;46914;-69
2023/12/24 03:12:17;;;;;;;;;15.25;12.00;;;;;8.90;64.06;100665.25;146611;589;47021;-69
2023/12/24 03:15:14;;;;;;;;;10.25;9.00;;;;;8.95;64.37;100655.16;146606;571;47014;-67
2023/12/24 03:18:08;;;;;;;;;13.75;11.25;;;;;8.99;64.09;100647.66;146615;681;46015;-68
2023/12/24 03:21:12;;;;;;;;;13.50;12.25;;;;;6.64;63.00;100237.44;146610;604;47012;-68
2023/12/24 03:24:13;;;;;;;;;8.25;8.25;;;;;9.15;62.88;100667.50;146609;563;46029;-67
2023/12/24 03:27:25;;;;;;;;;13.25;11.75;;;;;9.27;63.30;100658.66;146608;576;47017;-67
2023/12/24 03:30:29;;;;;;;;;13.75;12.50;;;;;9.35;62.34;100662.56;146613;637;47010;-69
2023/12/24 03:33:37;;;;;;;;;10.50;8.75;;;;;9.29;62.87;100677.75;146609;644;46016;-66
2023/12/24 03:36:30;;;;;;;;;11.25;10.00;;;;;9.26;62.87;100678.47;146616;599;46020;-67
2023/12/24 03:39:33;;;;;;;;;7.50;6.50;;;;;9.17;62.82;100677.97;146607;590;47012;-65
2023/12/24 03:42:36;;;;;;;;;6.50;6.50;;;;;9.11;62.86;100687.97;146616;573;46021;-67
2023/12/24 03:45:32;;;;;;;;;8.25;7.75;;;;;9.08;63.79;100688.69;146611;578;46012;-65
2023/12/24 03:48:53;;;;;;;;;;;;;;;;;;;;;
2023/12/24 03:51:56;;;;;;;;;8.00;7.00;;;;;9.02;63.64;100702.16;146610;596;47012;-66
2023/12/24 03:55:08;;;;;;;;;;;;;;;;;;;;;
2023/12/24 03:58:14;;;;;;;;;5.50;5.50;;;;;8.84;64.59;100700.19;146613;580;46012;-66
2023/12/24 04:01:15;;;;;;;;;6.25;5.00;;;;;8.71;64.88;100696.91;146614;586;46010;-65
2023/12/24 04:04:18;;;;;;;;;6.00;6.00;;;;;8.64;64.53;100697.34;146611;569;46913;-66
2023/12/24 04:07:21;;;;;;;;;6.50;4.75;;;;;8.59;65.34;100696.19;146616;670;46010;-65
2023/12/24 04:10:39;;;;;;;;;5.25;5.00;;;;;8.56;64.98;100702.06;146609;647;46913;-66
2023/12/24 04:13:35;;;;;;;;;7.00;5.75;;;;;8.52;64.95;100696.62;146616;576;46010;-69
2023/12/24 04:16:36;;;;;;;;;6.25;6.00;;;;;8.44;65.34;100695.28;146615;570;46016;-65
2023/12/24 04:19:38;;;;;;;;;13.00;11.00;;;;;8.37;65.71;100706.03;146613;647;47020;-65
2023/12/24 04:22:33;;;;;;;;;6.75;6.75;;;;;8.34;66.38;100705.03;146608;630;46912;-65
2023/12/24 04:25:34;;;;;;;;;9.00;9.00;;;;;8.32;66.35;100706.66;146613;613;46021;-69
2023/12/24 04:28:27;;;;;;;;;10.75;8.00;;;;;8.27;66.59;100704.59;146612;586;46012;-69
2023/12/24 04:31:23;;;;;;;;;8.00;7.50;;;;;8.21;66.88;100704.22;146614;565;46022;-68
2023/12/24 04:34:29;;;;;;;;;9.25;9.00;;;;;8.22;67.09;100727.53;146603;677;48914;-68
2023/12/24 04:37:34;;;;;;;;;9.25;7.50;;;;;8.25;66.42;100738.06;146618;704;46029;-68
2023/12/24 04:40:39;;;;;;;;;10.50;9.25;;;;;8.22;66.50;100732.72;146608;581;46034;-68
2023/12/24 04:43:42;;;;;;;;;9.00;8.00;;;;;8.25;67.27;100726.84;146616;642;46010;-67
2023/12/24 04:46:52;;;;;;;;;23.50;18.75;;;;;8.34;66.20;100730.88;146614;582;46017;-67
2023/12/24 04:49:49;;;;;;;;;18.00;14.25;;;;;8.39;67.11;100746.72;146608;565;47020;-67
2023/12/24 04:53:07;;;;;;;;;;;;;;;;;;;;;
2023/12/24 04:56:34;;;;;;;;;;;;;;;;;;;;;
2023/12/24 04:59:30;;;;;;;;;15.50;12.25;;;;;8.52;66.00;100748.31;146611;599;46016;-68
2023/12/24 05:02:39;;;;;;;;;13.00;11.00;;;;;8.59;65.05;100742.72;146612;601;47021;-67
2023/12/24 05:05:50;;;;;;;;;15.25;12.00;;;;;8.68;64.66;100739.78;146610;614;46016;-66
2023/12/24 05:08:58;;;;;;;;;22.25;19.75;;;;;6.82;64.75;100395.72;146612;601;46020;-68
2023/12/24 05:12:07;;;;;;;;;18.00;15.00;;;;;8.97;64.99;100759.56;146601;630;47012;-67
2023/12/24 05:15:13;;;;;;;;;23.75;17.00;;;;;9.05;63.76;100767.78;146613;700;46020;-67
2023/12/24 05:18:10;;;;;;;;;13.75;13.75;;;;;9.01;64.24;100771.91;146606;572;46916;-67
2023/12/24 05:21:29;;;;;;;;;22.25;20.00;;;;;5.13;62.88;100105.56;146613;569;46010;-67
2023/12/24 05:24:25;;;;;;;;;19.25;15.00;;;;;8.99;64.05;100789.00;146604;653;46017;-70
2023/12/24 05:27:20;;;;;;;;;14.75;11.75;;;;;9.00;64.63;100786.53;146609;596;46010;-70
2023/12/24 05:30:20;;;;;;;;;10.00;10.00;;;;;9.03;63.99;100785.78;146608;569;47015;-69
2023/12/24 05:33:14;;;;;;;;;13.25;9.50;;;;;8.98;64.56;100793.31;146613;658;46020;-69
2023/12/24 05:36:38;;;;;;;;;11.75;11.25;;;;;4.75;63.44;100075.75;146608;650;46024;-68
2023/12/24 05:39:56;;;;;;;;;11.50;10.75;;;;;8.90;64.44;100824.69;146611;577;47010;-67
2023/12/24 05:43:04;;;;;;;;;10.50;10.50;;;;;8.83;63.78;100817.38;146608;589;46016;-67
2023/12/24 05:46:23;;;;;;;;;21.75;19.50;;;;;8.83;64.06;100819.94;146614;566;46021;-67
2023/12/24 05:49:31;;;;;;;;;;;;;;;;;;;;;
2023/12/24 05:52:30;;;;;;;;;9.25;9.00;;;;;8.84;65.40;100839.81;146615;569;46020;-70
2023/12/24 05:55:36;;;;;;;;;12.50;10.00;;;;;8.79;65.05;100834.41;146612;621;46017;-68
2023/12/24 05:58:46;;;;;;;;;12.00;9.00;;;;;8.78;64.67;100845.50;146609;563;46020;-67
2023/12/24 06:01:42;;;;;;;;;11.00;10.25;;;;;8.79;65.41;100855.09;146608;573;47014;-67
2023/12/24 06:05:08;;;;;;;;;11.75;10.25;;;;;4.29;64.06;100071.09;146611;582;46028;-66
2023/12/24 06:08:27;;;;;;;;;;;;;;;;;;;;;
2023/12/24 06:11:21;;;;;;;;;8.75;8.75;;;;;8.73;65.83;100847.84;146615;718;47010;-69
2023/12/24 06:14:22;;;;;;;;;11.75;9.25;;;;;8.72;65.48;100835.72;146612;584;47016;-69
2023/12/24 06:17:39;;;;;;;;;8.75;8.25;;;;;4.72;64.19;100145.78;146615;682;47020;-69
2023/12/24 06:20:35;;;;;;;;;12.00;10.00;;;;;8.75;65.76;100841.09;146610;578;46912;-69
2023/12/24 06:23:35;;;;;;;;;19.00;13.50;;;;;8.75;65.59;100856.59;146613;657;46021;-67
2023/12/24 06:26:41;;;;;;;;;13.75;12.75;;;;;8.79;66.08;100862.84;146607;592;47016;-68
2023/12/24 06:29:44;;;;;;;;;12.50;11.00;;;;;8.67;66.01;100837.13;146610;581;46020;-69
2023/12/24 06:32:41;;;;;;;;;14.50;13.75;;;;;8.89;66.50;100861.69;146609;564;46913;-67
2023/12/24 06:35:45;;;;;;;;;14.25;12.00;;;;;9.01;66.46;100860.72;146612;614;46014;-67
2023/12/24 06:38:55;;;;;;;;;13.00;11.50;;;;;9.13;64.50;100857.97;146605;595;47016;-67
2023/12/24 06:42:05;;;;;;;;;16.25;14.00;;;;;9.24;65.72;100863.78;146613;589;47034;-66
2023/12/24 06:45:26;;;;;;;;;17.50;14.75;;;;;9.36;65.07;100855.84;146606;599;47015;-67
2023/12/24 06:48:34;;;;;;;;;21.50;18.25;;;;;9.48;65.53;100865.19;146615;637;46020;-66
2023/12/24 06:51:43;;;;;;;;;22.00;18.00;;;;;9.73;64.28;100873.50;146608;587;47012;-66
2023/12/24 06:54:43;;;;;;;;;21.25;19.00;;;;;10.01;64.92;100868.16;146614;687;46020;-67
2023/12/24 06:57:45;;;;;;;;;26.50;24.00;;;;;10.65;67.29;100863.91;146607;576;47012;-68
2023/12/24 07:01:09;;;;;;;;;17.50;14.75;;;;;11.45;63.70;100871.50;146602;564;47010;-68
2023/12/24 07:04:15;;;;;;;;;23.25;20.00;;;;;11.99;61.26;100868.94;146607;582;46016;-66
2023/12/24 07:07:25;;;;;;;;;19.50;18.25;;;;;12.58;58.11;100865.62;146611;634;46020;-65
2023/12/24 07:10:44;;;;;;;;;16.75;15.00;;;;;12.86;56.93;100885.09;146610;571;46038;-65
2023/12/24 07:13:41;;;;;;;;;23.75;20.50;;;;;12.88;56.28;100886.06;146613;588;46020;-65
2023/12/24 07:16:49;;;;;;;;;26.25;22.00;;;;;12.78;55.93;100892.56;146608;591;46025;-66
2023/12/24 07:19:51;;;;;;;;;32.50;29.00;;;;;12.76;57.25;100902.00;146613;596;46020;-68
2023/12/24 07:22:52;;;;;;;;;25.75;22.50;;;;;12.67;57.41;100901.59;146605;600;46017;-66
2023/12/24 07:26:02;;;;;;;;;26.75;21.75;;;;;12.58;56.91;100909.84;146609;603;47010;-67
2023/12/24 07:29:07;;;;;;;;;29.75;25.00;;;;;12.53;57.96;100924.38;146608;611;46016;-67
2023/12/24 07:32:12;;;;;;;;;16.25;14.50;;;;;12.45;58.33;100930.91;146606;573;46021;-65
2023/12/24 07:35:23;;;;;;;;;16.50;15.00;;;;;12.36;59.01;100931.38;146609;594;46016;-64
2023/12/24 07:38:17;;;;;;;;;21.25;18.00;;;;;12.37;58.12;100942.69;146611;577;47010;-64
2023/12/24 07:41:18;;;;;;;;;22.75;19.75;;;;;12.41;58.60;100942.88;146605;612;47012;-66
2023/12/24 07:44:17;;;;;;;;;20.75;19.00;;;;;12.42;57.67;100947.25;146611;677;46020;-66
2023/12/24 07:47:22;;;;;;;;;18.00;15.50;;;;;12.46;59.15;100949.22;146608;651;46016;-66
2023/12/24 07:50:26;;;;;;;;;15.75;15.00;;;;;12.69;60.38;100952.88;146613;615;46020;-65
2023/12/24 07:53:21;;;;;;;;;20.75;17.25;;;;;13.05;58.98;100957.06;146607;605;46033;-65
2023/12/24 07:56:35;;;;;;;;;21.50;18.75;;;;;13.35;54.97;100954.97;146609;582;46024;-65
2023/12/24 07:59:29;;;;;;;;;23.50;20.75;;;;;13.63;55.74;100949.22;146610;635;46913;-67
2023/12/24 08:02:21;;;;;;;;;27.00;23.00;;;;;13.86;54.80;100952.78;146604;564;46020;-65
2023/12/24 08:05:35;;;;;;;;;17.50;16.50;;;;;14.04;53.32;100968.31;146598;586;48916;-66
2023/12/24 08:08:30;;;;;;;;;18.75;18.00;;;;;14.07;52.63;100971.03;146614;643;46011;-66
2023/12/24 08:11:46;;;;;;;;;12.25;12.00;;;;;10.45;52.88;100327.97;146608;564;47016;-67
2023/12/24 08:14:44;;;;;;;;;15.50;13.75;;;;;14.23;52.42;100978.66;146615;618;46021;-67
2023/12/24 08:17:47;;;;;;;;;15.25;12.50;;;;;14.32;53.10;100988.56;146604;592;47912;-67
2023/12/24 08:20:53;;;;;;;;;;;;;;;;;;;;;
2023/12/24 08:24:05;;;;;;;;;16.50;14.25;;;;;14.42;53.25;100998.53;146608;613;46035;-66
2023/12/24 08:27:10;;;;;;;;;17.50;14.00;;;;;14.36;54.09;100997.41;146613;634;47014;-65
2023/12/24 08:30:11;;;;;;;;;18.25;14.25;;;;;14.52;53.82;101011.19;146610;728;46017;-67
2023/12/24 08:33:06;;;;;;;;;13.25;11.25;;;;;14.73;51.52;101008.50;146607;601;47010;-66
2023/12/24 08:36:07;;;;;;;;;16.25;14.00;;;;;14.88;52.93;101004.72;146609;564;46016;-66
2023/12/24 08:39:11;;;;;;;;;11.25;11.25;;;;;15.04;51.74;101012.28;146612;564;46021;-66
2023/12/24 08:42:14;;;;;;;;;12.50;10.50;;;;;15.04;50.77;101020.13;146606;565;47030;-66
2023/12/24 08:45:30;;;;;;;;;15.00;11.25;;;;;11.36;51.29;100351.84;146612;612;47020;-66
2023/12/24 08:48:28;;;;;;;;;16.75;13.50;;;;;15.44;50.48;101019.00;146608;593;47014;-66
2023/12/24 08:51:27;;;;;;;;;13.75;11.25;;;;;15.72;51.37;101030.47;146610;699;46020;-67
2023/12/24 08:54:29;;;;;;;;;14.00;11.50;;;;;16.03;49.58;101032.41;146607;603;46016;-66
2023/12/24 08:57:31;;;;;;;;;16.25;13.00;;;;;16.34;49.98;101032.59;146614;617;46020;-65
2023/12/24 09:00:33;;;;;;;;;21.75;18.75;;;;;16.63;49.66;101025.69;146604;590;47013;-66
2023/12/24 09:03:47;;;;;;;;;18.00;15.50;;;;;17.02;49.24;101046.09;146608;577;46010;-66
2023/12/24 09:06:49;;;;;;;;;21.00;17.50;;;;;17.38;48.59;101044.50;146600;586;48915;-66
2023/12/24 09:09:51;;;;;;;;;17.75;17.00;;;;;17.63;45.78;101046.09;146616;593;46020;-66
2023/12/24 09:12:58;;;;;;;;;18.75;16.00;;;;;17.76;45.43;101032.50;146599;615;47012;-66
2023/12/24 09:15:57;;;;;;;;;20.75;17.25;;;;;17.92;46.39;101032.06;146610;597;46029;-66
2023/12/24 09:18:55;;;;;;;;;14.75;13.75;;;;;18.04;45.43;101026.25;146608;572;47012;-65
2023/12/24 09:22:00;;;;;;;;;19.50;16.50;;;;;18.13;46.04;101022.97;146611;713;47010;-65
2023/12/24 09:25:21;;;;;;;;;16.50;15.00;;;;;18.23;46.96;101017.13;146606;594;47012;-67
2023/12/24 09:28:26;;;;;;;;;15.75;12.50;;;;;18.39;44.58;101014.00;146610;625;47011;-67
2023/12/24 09:31:28;;;;;;;;;13.75;12.00;;;;;18.56;45.30;101014.38;146605;613;47012;-65
2023/12/24 09:34:28;;;;;;;;;9.75;7.50;;;;;18.74;44.79;101005.19;146608;604;46010;-67
2023/12/24 09:37:27;;;;;;;;;13.00;10.25;;;;;18.92;44.35;101009.13;146608;671;46017;-66
2023/12/24 09:40:26;;;;;;;;;8.75;8.50;;;;;19.05;44.29;101007.63;146611;600;46010;-66
2023/12/24 09:43:30;;;;;;;;;8.25;7.75;;;;;19.15;45.72;101001.72;146612;679;46017;-67
2023/12/24 09:46:39;;;;;;;;;12.00;10.00;;;;;19.21;44.50;100993.06;146613;601;47020;-67
2023/12/24 09:49:36;;;;;;;;;10.50;9.50;;;;;19.21;42.26;100979.03;146606;682;46913;-67
2023/12/24 09:52:46;;;;;;;;;7.00;6.00;;;;;19.19;45.77;100976.41;146614;693;46020;-68
2023/12/24 09:55:58;;;;;;;;;5.67;5.67;;;;;19.23;45.27;100972.09;146609;566;46016;-66
2023/12/24 09:59:00;;;;;;;;;9.00;6.75;;;;;19.28;44.34;100958.19;146615;669;47021;-66
2023/12/24 10:01:56;;;;;;;;;9.50;7.75;;;;;19.35;42.90;100960.06;146607;563;47016;-66
2023/12/24 10:05:07;;;;;;;;;9.75;8.00;;;;;19.43;43.93;100957.56;146608;591;46030;-66
2023/12/24 10:08:14;;;;;;;;;;;;;;;;;;;;;
2023/12/24 10:11:35;;;;;;;;;16.75;14.75;;;;;17.87;44.73;100640.19;146611;646;47010;-67
2023/12/24 10:14:51;;;;;;;;;;;;;;;;;;;;;
2023/12/24 10:17:51;;;;;;;;;8.00;7.00;;;;;19.76;42.62;100944.16;146616;613;47010;-66
2023/12/24 10:20:56;;;;;;;;;6.67;6.00;;;;;19.88;42.80;100945.25;146609;606;47017;-65
2023/12/24 10:23:59;;;;;;;;;6.67;6.00;;;;;20.06;42.62;100928.00;146618;618;46020;-65
2023/12/24 10:26:57;;;;;;;;;6.00;5.00;;;;;20.25;42.18;100925.66;146611;656;46017;-66
2023/12/24 10:30:16;;;;;;;;;2.00;0.00;;;;;20.40;45.23;100917.06;146616;616;46010;-66
2023/12/24 10:33:23;;;;;;;;;4.67;4.67;;;;;20.50;41.54;100904.06;146609;631;48014;-67
2023/12/24 10:36:33;;;;;;;;;7.33;5.67;;;;;20.56;40.93;100902.41;146608;606;47010;-66
2023/12/24 10:39:54;;;;;;;;;6.67;6.67;;;;;18.76;43.01;100589.34;146610;675;46016;-66
2023/12/24 10:42:57;;;;;;;;;9.00;7.00;;;;;20.66;39.96;100909.59;146616;566;46020;-67
2023/12/24 10:45:50;;;;;;;;;6.00;5.00;;;;;20.65;40.10;100900.75;146609;624;47012;-66
2023/12/24 10:48:49;;;;;;;;;7.00;5.00;;;;;20.75;41.84;100910.59;146617;580;46020;-65
2023/12/24 10:51:42;;;;;;;;;9.00;8.25;;;;;20.87;40.69;100903.66;146610;600;47016;-67
2023/12/24 10:54:46;;;;;;;;;7.75;6.25;;;;;21.00;43.19;100897.69;146616;551;46020;-67
2023/12/24 10:58:15;;;;;;;;;8.25;5.75;;;;;21.14;42.09;100895.19;146611;641;46017;-67
2023/12/24 11:01:29;;;;;;;;;5.33;4.00;;;;;21.14;40.38;100890.81;146617;584;46010;-66
2023/12/24 11:04:49;;;;;;;;;6.00;5.75;;;;;21.12;42.96;100892.56;146608;687;46035;-66
2023/12/24 11:08:46;;;;;;;;;5.00;5.00;;;;;16.73;42.00;100138.38;146610;595;46020;-66
2023/12/24 11:12:05;;;;;;;;;10.00;8.50;;;;;21.10;40.87;100889.03;146613;650;46036;-66
2023/12/24 11:15:01;;;;;;;;;5.75;5.75;;;;;21.17;38.25;100880.28;146615;569;47010;-66
2023/12/24 11:17:54;;;;;;;;;8.75;6.50;;;;;21.24;39.74;100897.06;146608;571;46913;-66
2023/12/24 11:21:12;;;;;;;;;10.67;6.33;;;;;21.32;38.78;100889.25;146616;594;46011;-67
2023/12/24 11:24:44;;;;;;;;;12.67;8.67;;;;;17.97;43.10;100303.78;146608;577;46910;-67
2023/12/24 11:28:11;;;;;;;;;15.00;12.75;;;;;18.36;43.08;100354.16;146613;712;47010;-66
2023/12/24 11:31:30;;;;;;;;;15.50;14.00;;;;;18.26;39.54;100315.53;146608;607;46016;-65
2023/12/24 11:34:49;;;;;;;;;15.75;13.75;;;;;18.26;40.64;100329.53;146615;645;46021;-67
2023/12/24 11:38:00;;;;;;;;;23.25;20.50;;;;;20.01;38.81;100636.66;146609;566;46031;-67
2023/12/24 11:41:10;;;;;;;;;24.75;22.00;;;;;21.50;37.56;100878.03;146605;564;47015;-67
2023/12/24 11:44:28;;;;;;;;;3.50;3.50;;;;;21.53;38.50;100870.13;146607;667;47016;-66
2023/12/24 11:47:36;;;;;;;;;8.00;7.00;;;;;21.60;37.85;100859.63;146615;613;47021;-67
2023/12/24 11:50:51;;;;;;;;;8.67;5.67;;;;;21.70;37.93;100854.44;146612;575;46913;-67
2023/12/24 11:54:00;;;;;;;;;10.75;8.75;;;;;21.78;38.96;100844.81;146614;672;47010;-65
2023/12/24 11:56:58;;;;;;;;;5.33;4.33;;;;;21.97;39.14;100848.47;146608;580;47913;-66
2023/12/24 12:00:05;;;;;;;;;7.00;5.67;;;;;22.10;38.74;100840.63;146605;579;47010;-66
2023/12/24 12:03:17;;;;;;;;;;;;;;;;;;;;;
2023/12/24 12:06:19;;;;;;;;;7.00;6.33;;;;;22.44;38.11;100825.00;146614;626;47010;-65
2023/12/24 12:09:15;;;;;;;;;7.00;7.00;;;;;22.60;35.57;100824.16;146610;594;47014;-65
2023/12/24 12:12:24;;;;;;;;;6.33;6.00;;;;;22.71;34.81;100820.66;146608;633;46020;-65
2023/12/24 12:15:45;;;;;;;;;4.00;3.00;;;;;22.74;35.57;100828.59;146610;564;47016;-67
2023/12/24 12:18:38;;;;;;;;;3.00;3.00;;;;;22.80;34.86;100834.81;146613;574;47015;-66
2023/12/24 12:21:32;;;;;;;;;5.33;4.33;;;;;22.93;35.03;100833.09;146610;573;46037;-64
2023/12/24 12:24:27;;;;;;;;;5.33;5.00;;;;;23.09;35.64;100822.56;146616;597;46020;-65
2023/12/24 12:27:31;;;;;;;;;5.67;5.00;;;;;23.30;35.90;100827.84;146614;678;46016;-67
2023/12/24 12:30:29;;;;;;;;;5.00;4.00;;;;;23.45;35.83;100827.00;146616;616;47010;-66
2023/12/24 12:33:36;;;;;;;;;;;;;;;;;;;;;
2023/12/24 12:36:30;;;;;;;;;4.00;3.67;;;;;23.68;32.29;100824.34;146617;644;46020;-67
2023/12/24 12:39:28;;;;;;;;;6.00;3.33;;;;;23.77;33.72;100824.38;146610;604;47012;-66
2023/12/24 12:42:31;;;;;;;;;5.33;3.33;;;;;23.92;36.16;100819.03;146608;612;47010;-65
2023/12/24 12:45:31;;;;;;;;;8.00;6.00;;;;;24.13;35.37;100827.81;146612;569;46016;-66
2023/12/24 12:48:42;;;;;;;;;5.00;4.00;;;;;21.37;37.51;100304.66;146615;634;46010;-66
2023/12/24 12:51:43;;;;;;;;;9.67;8.00;;;;;24.63;36.69;100814.41;146608;564;47012;-66
2023/12/24 12:54:38;;;;;;;;;6.33;4.33;;;;;24.83;32.45;100806.34;146617;598;47010;-67
2023/12/24 12:57:59;;;;;;;;;6.00;3.33;;;;;22.00;37.59;100292.31;146610;595;47014;-66
2023/12/24 13:01:10;;;;;;;;;9.00;6.00;;;;;25.25;34.59;100806.97;146615;755;48010;-66
2023/12/24 13:04:03;;;;;;;;;9.00;8.00;;;;;25.29;31.87;100807.81;146613;631;46016;-67
2023/12/24 13:07:18;;;;;;;;;5.67;5.67;;;;;22.53;37.52;100317.69;146617;574;46010;-66
2023/12/24 13:10:14;;;;;;;;;17.00;15.75;;;;;25.60;33.09;100797.81;146608;629;47012;-66
2023/12/24 13:13:35;;;;;;;;;19.25;18.50;;;;;23.11;37.65;100320.94;146604;578;47010;-66
2023/12/24 13:16:32;;;;;;;;;16.50;15.50;;;;;26.14;32.07;100802.63;146607;612;46016;-67
2023/12/24 13:19:28;;;;;;;;;23.75;20.50;;;;;26.32;30.80;100809.47;146612;603;46021;-66
2023/12/24 13:22:42;;;;;;;;;12.00;10.67;;;;;26.33;30.66;100804.16;146607;604;46033;-66
2023/12/24 13:25:46;;;;;;;;;11.33;10.00;;;;;26.20;35.38;100806.09;146612;592;46010;-66
2023/12/24 13:28:43;;;;;;;;;15.25;12.50;;;;;26.10;32.38;100809.72;146609;631;46030;-66
2023/12/24 13:31:45;;;;;;;;;14.25;13.00;;;;;25.95;33.57;100815.19;146611;731;46020;-66
2023/12/24 13:34:43;;;;;;;;;12.75;12.00;;;;;25.86;34.03;100808.22;146607;582;46035;-66
2023/12/24 13:37:47;;;;;;;;;15.00;14.00;;;;;25.82;34.52;100810.91;146610;569;47010;-66
2023/12/24 13:41:01;;;;;;;;;;;;;;;;;;;;;
2023/12/24 13:44:02;;;;;;;;;12.67;10.33;;;;;25.52;37.09;100821.78;146614;593;46010;-68
2023/12/24 13:46:58;;;;;;;;;11.00;11.00;;;;;25.44;35.47;100823.63;146610;642;47012;-66
2023/12/24 13:50:00;;;;;;;;;16.67;12.00;;;;;25.47;36.50;100820.06;146614;646;46020;-66
2023/12/24 13:52:57;;;;;;;;;18.50;16.00;;;;;25.51;35.44;100813.81;146605;581;47016;-66
2023/12/24 13:55:52;;;;;;;;;25.25;20.00;;;;;25.52;34.21;100816.47;146612;570;47021;-67
2023/12/24 13:58:58;;;;;;;;;17.00;14.75;;;;;25.44;36.61;100812.12;146605;570;47016;-66
2023/12/24 14:02:11;;;;;;;;;16.00;15.00;;;;;25.31;37.61;100817.53;146613;564;46010;-68
2023/12/24 14:05:21;;;;;;;;;22.50;21.00;;;;;25.10;36.57;100809.69;146608;586;46912;-67
2023/12/24 14:08:26;;;;;;;;;10.33;10.33;;;;;24.96;38.77;100820.41;146608;573;46031;-66
2023/12/24 14:11:29;;;;;;;;;12.00;10.33;;;;;24.80;36.93;100814.31;146609;597;47013;-66
2023/12/24 14:14:37;;;;;;;;;25.00;23.75;;;;;21.57;39.60;100281.81;146608;592;47010;-65
2023/12/24 14:17:45;;;;;;;;;24.50;22.50;;;;;24.45;40.14;100810.97;146604;580;46017;-66
2023/12/24 14:20:58;;;;;;;;;21.50;20.00;;;;;24.27;41.33;100820.72;146609;581;47010;-67
2023/12/24 14:24:00;;;;;;;;;22.25;22.25;;;;;24.12;39.94;100823.41;146607;585;46914;-66
2023/12/24 14:27:10;;;;;;;;;25.50;24.00;;;;;23.98;40.73;100834.03;146608;589;47010;-66
2023/12/24 14:30:25;;;;;;;;;12.00;11.00;;;;;23.66;39.87;100831.41;146606;637;46016;-66
2023/12/24 14:33:20;;;;;;;;;5.00;3.67;;;;;23.07;39.76;100835.78;146609;586;47010;-68
2023/12/24 14:36:32;;;;;;;;;4.67;4.00;;;;;22.33;42.36;100840.78;146612;629;46016;-66